Time;durP1;ratioP1;P1;durP2;ratioP2;P2;SDS_P1;SDS_P2;PMS_P1;PMS_P2;Temp;Humidity;BMP_temperature;BMP_pressure;BME280_temperature;BME280_humidity;BME280_pressure;Samples;Min_cycle;Max_cycle;Signal;HPM_P1;HPM_P2
2022/04/10 00:01:51;;;;;;;4.28;1.52;;;5.90;99.90;;;;;;4909821;29;20037;-84
2022/04/10 00:04:18;;;;;;;6.95;1.60;;;5.90;99.90;;;;;;4917364;29;20036;-83
2022/04/10 00:06:43;;;;;;;5.97;1.70;;;5.90;99.90;;;;;;4914577;29;20020;-83
2022/04/10 00:09:10;;;;;;;4.68;1.60;;;5.90;99.90;;;;;;4914443;29;20088;-83
2022/04/10 00:11:35;;;;;;;4.53;1.63;;;5.90;99.90;;;;;;4919211;29;20028;-84
2022/04/10 00:14:01;;;;;;;2.35;1.23;;;5.90;99.90;;;;;;4919854;29;20065;-82
2022/04/10 00:16:27;;;;;;;4.30;1.27;;;5.80;99.90;;;;;;4918428;29;20116;-85
2022/04/10 00:18:53;;;;;;;4.53;1.70;;;5.80;99.90;;;;;;4919827;29;20036;-84
2022/04/10 00:21:19;;;;;;;4.07;2.00;;;5.80;99.90;;;;;;4917910;29;20043;-85
2022/04/10 00:23:45;;;;;;;9.02;2.10;;;5.80;99.90;;;;;;4908515;29;20120;-83
2022/04/10 00:26:12;;;;;;;4.22;1.50;;;5.80;99.90;;;;;;4904046;29;20079;-84
2022/04/10 00:28:38;;;;;;;4.85;1.58;;;5.80;99.90;;;;;;4887353;29;20576;-82
2022/04/10 00:31:03;;;;;;;4.75;1.52;;;5.70;99.90;;;;;;4901895;29;20052;-83
2022/04/10 00:33:29;;;;;;;3.20;1.30;;;5.70;99.90;;;;;;4903518;29;20465;-86
2022/04/10 00:35:55;;;;;;;5.63;1.50;;;5.70;99.90;;;;;;4905216;29;20029;-84
2022/04/10 00:38:21;;;;;;;7.95;1.65;;;5.80;99.90;;;;;;4906415;29;20517;-85
2022/04/10 00:40:46;;;;;;;4.88;1.40;;;5.70;99.90;;;;;;4911719;29;20084;-84
2022/04/10 00:43:12;;;;;;;5.78;1.73;;;5.70;99.90;;;;;;4904363;29;20072;-84
2022/04/10 00:45:38;;;;;;;3.53;1.85;;;5.70;99.90;;;;;;4888670;29;20080;-85
2022/04/10 00:48:04;;;;;;;6.25;1.90;;;5.70;99.90;;;;;;4914818;29;20126;-84
2022/04/10 00:50:32;;;;;;;2.50;1.45;;;5.70;99.90;;;;;;4914040;29;20041;-86
2022/04/10 00:52:59;;;;;;;4.28;1.67;;;5.70;99.90;;;;;;4912547;29;20037;-86
2022/04/10 00:55:25;;;;;;;2.15;1.55;;;5.70;99.90;;;;;;4911524;29;20021;-84
2022/04/10 00:57:51;;;;;;;8.48;1.95;;;5.70;99.90;;;;;;4894951;29;20039;-85
2022/04/10 01:00:17;;;;;;;2.97;1.70;;;5.70;99.90;;;;;;4908894;29;20037;-85
2022/04/10 01:02:43;;;;;;;5.10;1.73;;;5.70;99.90;;;;;;4912436;29;20036;-85
2022/04/10 01:05:09;;;;;;;4.50;2.22;;;5.70;99.90;;;;;;4917907;29;20092;-85
2022/04/10 01:07:35;;;;;;;3.33;1.83;;;5.70;99.90;;;;;;4921248;29;20516;-85
2022/04/10 01:10:02;;;;;;;6.40;1.90;;;5.80;99.90;;;;;;4921562;29;20033;-83
2022/04/10 01:12:32;;;;;;;7.47;2.28;;;5.70;99.90;;;;;;4918620;29;20021;-86
2022/04/10 01:15:01;;;;;;;4.47;1.73;;;5.70;99.90;;;;;;4914320;29;20037;-84
2022/04/10 01:17:33;;;;;;;6.03;1.83;;;5.70;99.90;;;;;;4907650;29;20036;-85
2022/04/10 01:20:00;;;;;;;6.20;2.00;;;5.70;99.90;;;;;;4907558;29;20036;-84
2022/04/10 01:22:34;;;;;;;4.90;2.03;;;5.70;99.90;;;;;;4906151;29;20518;-85
2022/04/10 01:25:05;;;;;;;5.28;1.90;;;5.70;99.90;;;;;;4906674;29;20197;-85
2022/04/10 01:27:37;;;;;;;7.70;2.00;;;5.70;99.90;;;;;;4907443;29;20052;-83
2022/04/10 01:30:05;;;;;;;6.57;2.13;;;5.60;99.90;;;;;;4907450;29;20029;-84
2022/04/10 01:32:31;;;;;;;3.28;1.75;;;5.60;99.90;;;;;;4894018;29;20028;-84
2022/04/10 01:35:00;;;;;;;4.88;1.90;;;5.60;99.90;;;;;;4919794;29;20105;-85
2022/04/10 01:37:27;;;;;;;3.83;1.60;;;5.60;99.90;;;;;;4902596;29;20032;-86
2022/04/10 01:39:53;;;;;;;3.95;1.70;;;5.60;99.90;;;;;;4920270;29;20016;-86
2022/04/10 01:42:19;;;;;;;8.10;2.15;;;5.60;99.90;;;;;;4916777;29;20033;-86
2022/04/10 01:44:45;;;;;;;4.93;2.20;;;5.60;99.90;;;;;;4909349;29;20029;-85
2022/04/10 01:47:14;;;;;;;5.40;1.85;;;5.50;99.90;;;;;;4916013;29;20012;-85
2022/04/10 01:49:41;;;;;;;6.18;2.08;;;5.50;99.90;;;;;;4918188;29;20052;-86
2022/04/10 01:52:07;;;;;;;4.07;2.15;;;5.60;99.90;;;;;;4919417;29;20040;-85
2022/04/10 01:54:33;;;;;;;4.25;2.03;;;5.50;99.90;;;;;;4919382;29;20032;-86
2022/04/10 01:56:59;;;;;;;8.02;2.13;;;5.50;99.90;;;;;;4920765;29;20028;-84
2022/04/10 01:59:29;;;;;;;5.57;1.67;;;5.50;99.90;;;;;;4892448;29;20037;-84
2022/04/10 02:01:55;;;;;;;5.82;2.20;;;5.50;99.90;;;;;;4890067;29;20028;-86
2022/04/10 02:04:21;;;;;;;3.63;1.70;;;5.50;99.90;;;;;;4889700;29;20690;-86
2022/04/10 02:06:47;;;;;;;5.78;2.10;;;5.50;99.90;;;;;;4906197;29;20166;-85
2022/04/10 02:09:13;;;;;;;6.55;1.90;;;5.50;99.90;;;;;;4904916;29;20025;-85
2022/04/10 02:11:40;;;;;;;7.00;2.28;;;5.50;99.90;;;;;;4904216;29;20040;-84
2022/04/10 02:14:07;;;;;;;6.82;2.03;;;5.50;99.90;;;;;;4888660;29;20065;-85
2022/04/10 02:16:33;;;;;;;9.13;2.10;;;5.40;99.90;;;;;;4905654;29;20032;-86
2022/04/10 02:18:58;;;;;;;4.43;1.92;;;5.40;99.90;;;;;;4908318;29;20032;-86
2022/04/10 02:21:24;;;;;;;5.25;2.03;;;5.40;99.90;;;;;;4909392;29;20084;-86
2022/04/10 02:23:51;;;;;;;6.95;1.90;;;5.40;99.90;;;;;;4905404;29;20067;-86
2022/04/10 02:26:16;;;;;;;2.67;1.67;;;5.40;99.90;;;;;;4905469;29;20036;-85
2022/04/10 02:28:42;;;;;;;4.50;2.05;;;5.40;99.90;;;;;;4911940;29;20025;-87
2022/04/10 02:31:09;;;;;;;5.57;1.80;;;5.30;99.90;;;;;;4915724;29;20515;-87
2022/04/10 02:33:37;;;;;;;3.03;1.83;;;5.30;99.90;;;;;;4912521;29;20025;-84
2022/04/10 02:36:03;;;;;;;4.65;1.85;;;5.30;99.90;;;;;;4904310;29;20039;-87
2022/04/10 02:38:30;;;;;;;5.78;2.33;;;5.30;99.90;;;;;;4905691;29;20524;-86
2022/04/10 02:40:56;;;;;;;2.80;1.80;;;5.30;99.90;;;;;;4905079;29;20024;-86
2022/04/10 02:43:22;;;;;;;8.07;2.20;;;5.30;99.90;;;;;;4890993;29;20028;-83
2022/04/10 02:45:52;;;;;;;6.93;1.92;;;5.20;99.90;;;;;;4917960;29;20063;-85
2022/04/10 02:48:18;;;;;;;5.57;2.28;;;5.20;99.90;;;;;;4918863;29;20108;-84
2022/04/10 02:50:44;;;;;;;8.05;2.22;;;5.20;99.90;;;;;;4919171;29;20064;-84
2022/04/10 02:53:12;;;;;;;6.45;2.15;;;5.20;99.90;;;;;;4917767;29;20060;-85
2022/04/10 02:55:38;;;;;;;8.00;2.15;;;5.20;99.90;;;;;;4918725;29;20036;-84
2022/04/10 02:58:04;;;;;;;4.60;2.00;;;5.20;99.90;;;;;;4919720;29;20024;-86
2022/04/10 03:00:30;;;;;;;5.03;2.30;;;5.20;99.90;;;;;;4919856;29;20017;-83
2022/04/10 03:02:55;;;;;;;7.50;2.28;;;5.10;99.90;;;;;;4918861;29;20078;-85
2022/04/10 03:05:21;;;;;;;5.82;2.17;;;5.10;99.90;;;;;;4919436;29;20068;-85
2022/04/10 03:07:47;;;;;;;5.28;2.20;;;5.10;99.90;;;;;;4915644;29;20036;-85
2022/04/10 03:10:14;;;;;;;7.80;2.00;;;5.10;99.90;;;;;;4904345;29;20054;-84
2022/04/10 03:12:40;;;;;;;6.63;2.30;;;5.10;99.90;;;;;;4904214;29;20493;-84
2022/04/10 03:15:07;;;;;;;4.80;2.10;;;5.10;99.90;;;;;;4904042;29;20032;-84
2022/04/10 03:17:35;;;;;;;9.00;2.30;;;5.10;99.90;;;;;;4903377;29;20020;-85
2022/04/10 03:20:03;;;;;;;5.95;2.33;;;5.00;99.90;;;;;;4903591;29;20036;-86
2022/04/10 03:22:28;;;;;;;4.30;2.03;;;5.00;99.90;;;;;;4901100;29;20029;-83
2022/04/10 03:24:54;;;;;;;5.15;2.13;;;5.00;99.90;;;;;;4887997;29;20044;-84
2022/04/10 03:27:20;;;;;;;4.03;2.45;;;5.00;99.90;;;;;;4911153;29;20045;-83
2022/04/10 03:29:47;;;;;;;7.70;2.30;;;5.00;99.90;;;;;;4892100;29;20063;-85
2022/04/10 03:32:12;;;;;;;3.55;2.20;;;5.00;99.90;;;;;;4917836;29;20033;-87
2022/04/10 03:34:40;;;;;;;6.63;2.40;;;5.00;99.90;;;;;;4903566;29;20405;-85
2022/04/10 03:37:06;;;;;;;2.90;2.05;;;5.00;99.90;;;;;;4907729;29;20054;-85
2022/04/10 03:39:32;;;;;;;6.10;2.30;;;5.00;99.90;;;;;;4916732;29;20024;-86
2022/04/10 03:41:59;;;;;;;3.97;2.17;;;5.00;99.90;;;;;;4915542;29;20028;-85
2022/04/10 03:44:25;;;;;;;5.80;1.98;;;5.00;99.90;;;;;;4914460;29;20118;-84
2022/04/10 03:46:51;;;;;;;5.60;2.17;;;5.00;99.90;;;;;;4915011;29;20035;-85
2022/04/10 03:49:17;;;;;;;5.18;2.40;;;5.00;99.90;;;;;;4911791;29;20028;-83
2022/04/10 03:51:44;;;;;;;4.85;2.00;;;5.00;99.90;;;;;;4900204;29;20040;-83
2022/04/10 03:54:11;;;;;;;9.45;2.63;;;5.00;99.90;;;;;;4914458;29;20043;-85
2022/04/10 03:56:37;;;;;;;5.63;2.97;;;4.90;99.90;;;;;;4918285;29;20041;-85
2022/04/10 03:59:04;;;;;;;8.85;3.40;;;4.90;99.90;;;;;;4919416;29;20017;-84
2022/04/10 04:01:29;;;;;;;6.65;3.10;;;4.90;99.90;;;;;;4906090;29;20029;-84
2022/04/10 04:03:55;;;;;;;9.70;3.78;;;4.80;99.90;;;;;;4907453;29;20028;-85
2022/04/10 04:06:21;;;;;;;6.88;3.30;;;4.80;99.90;;;;;;4922847;29;20039;-83
2022/04/10 04:08:47;;;;;;;9.40;3.53;;;4.70;99.90;;;;;;4901140;29;20036;-83
2022/04/10 04:11:15;;;;;;;6.10;3.17;;;4.70;99.90;;;;;;4908426;29;20020;-85
2022/04/10 04:13:41;;;;;;;7.90;3.08;;;4.70;99.90;;;;;;4909402;29;20043;-85
2022/04/10 04:16:08;;;;;;;5.20;3.08;;;4.70;99.90;;;;;;4912548;29;20513;-83
2022/04/10 04:18:35;;;;;;;7.10;3.15;;;4.60;99.90;;;;;;4907793;29;20040;-84
2022/04/10 04:21:02;;;;;;;5.57;3.05;;;4.60;99.90;;;;;;4891231;29;20397;-84
2022/04/10 04:23:31;;;;;;;7.40;3.08;;;4.60;99.90;;;;;;4906791;29;20529;-84
2022/04/10 04:25:58;;;;;;;8.10;3.50;;;4.60;99.90;;;;;;4906995;29;20033;-84
2022/04/10 04:28:25;;;;;;;8.02;3.78;;;4.60;99.90;;;;;;4902142;29;20008;-84
2022/04/10 04:30:51;;;;;;;7.13;3.03;;;4.60;99.90;;;;;;4921231;29;20032;-87
2022/04/10 04:33:17;;;;;;;6.95;3.35;;;4.60;99.90;;;;;;4924080;29;20024;-85
2022/04/10 04:35:43;;;;;;;11.02;3.70;;;4.60;99.90;;;;;;4913002;29;20032;-83
2022/04/10 04:38:09;;;;;;;7.47;3.85;;;4.60;99.90;;;;;;4898051;29;20044;-82
2022/04/10 04:40:36;;;;;;;7.32;3.80;;;4.60;99.90;;;;;;4922428;29;20035;-82
2022/04/10 04:43:02;;;;;;;6.03;3.33;;;4.60;99.90;;;;;;4922329;29;20077;-85
2022/04/10 04:45:32;;;;;;;6.68;3.22;;;4.60;99.90;;;;;;4917908;29;20028;-84
2022/04/10 04:48:04;;;;;;;6.85;3.60;;;4.50;99.90;;;;;;4918878;29;20065;-85
2022/04/10 04:50:31;;;;;;;8.27;3.70;;;4.60;99.90;;;;;;4917662;29;20047;-83
2022/04/10 04:52:58;;;;;;;6.53;3.17;;;4.60;99.90;;;;;;4909925;29;20049;-85
2022/04/10 04:55:23;;;;;;;6.13;3.10;;;4.60;99.90;;;;;;4909183;29;20029;-84
2022/04/10 04:57:49;;;;;;;9.07;3.00;;;4.60;99.90;;;;;;4890887;29;20370;-85
2022/04/10 05:00:16;;;;;;;10.70;3.03;;;4.70;99.90;;;;;;4894895;29;20032;-86
2022/04/10 05:02:48;;;;;;;6.32;3.03;;;4.70;99.90;;;;;;4914779;29;20115;-85
2022/04/10 05:05:14;;;;;;;8.90;2.90;;;4.80;99.90;;;;;;4916962;29;20035;-86
2022/04/10 05:07:40;;;;;;;6.35;2.42;;;4.80;99.90;;;;;;4915085;29;20067;-85
2022/04/10 05:10:07;;;;;;;7.43;2.63;;;4.90;99.90;;;;;;4918695;29;20043;-83
2022/04/10 05:12:36;;;;;;;6.95;2.25;;;4.90;99.90;;;;;;4917945;29;20032;-83
2022/04/10 05:15:08;;;;;;;7.40;2.50;;;5.00;99.90;;;;;;4917522;29;20052;-83
2022/04/10 05:17:38;;;;;;;6.97;1.95;;;5.10;99.90;;;;;;4928706;29;20056;-83
2022/04/10 05:20:07;;;;;;;3.85;2.25;;;5.20;99.90;;;;;;4931261;29;20028;-81
2022/04/10 05:25:09;;;;;;;7.95;2.25;;;5.40;99.90;;;;;;4941002;29;20243;-85
2022/04/10 05:27:37;;;;;;;2.85;2.10;;;5.50;99.90;;;;;;4930062;29;20019;-86
2022/04/10 05:30:03;;;;;;;5.15;2.78;;;5.60;99.90;;;;;;4931333;29;20024;-86
2022/04/10 05:32:29;;;;;;;5.55;2.20;;;5.60;99.90;;;;;;4936769;29;20134;-83
2022/04/10 05:34:55;;;;;;;4.97;2.03;;;5.60;99.90;;;;;;4915860;29;20037;-85
2022/04/10 05:37:22;;;;;;;5.65;2.38;;;5.80;99.90;;;;;;4935478;29;20246;-83
2022/04/10 05:39:52;;;;;;;5.60;2.35;;;5.90;99.90;;;;;;4914345;29;20037;-83
2022/04/10 05:42:18;;;;;;;3.95;2.03;;;6.00;99.90;;;;;;4931261;29;20039;-85
2022/04/10 05:44:44;;;;;;;7.53;2.83;;;6.10;99.90;;;;;;4917942;29;20060;-84
2022/04/10 05:47:12;;;;;;;7.35;2.35;;;6.20;99.90;;;;;;4914478;29;20017;-85
2022/04/10 05:49:38;;;;;;;7.10;1.88;;;6.20;99.90;;;;;;4938674;29;20008;-84
2022/04/10 05:52:05;;;;;;;4.90;1.90;;;6.30;99.90;;;;;;4926657;29;20029;-85
2022/04/10 05:54:31;;;;;;;4.85;2.25;;;6.30;99.90;;;;;;4912396;29;20052;-86
2022/04/10 05:56:59;;;;;;;4.95;2.47;;;6.30;99.90;;;;;;4921734;29;20117;-86
2022/04/10 05:59:25;;;;;;;3.38;1.92;;;6.40;99.90;;;;;;4920806;29;20020;-83
2022/04/10 06:01:54;;;;;;;4.38;2.08;;;6.40;99.90;;;;;;4928561;29;20043;-84
2022/04/10 06:04:20;;;;;;;4.03;2.35;;;6.50;99.90;;;;;;4929066;29;20036;-83
2022/04/10 06:06:47;;;;;;;5.85;2.67;;;6.60;99.90;;;;;;4927301;29;20060;-83
2022/04/10 06:09:21;;;;;;;6.57;2.20;;;6.60;99.90;;;;;;4932338;29;20059;-86
2022/04/10 06:11:47;;;;;;;4.28;2.05;;;6.70;99.90;;;;;;4928911;29;20025;-84
2022/04/10 06:14:13;;;;;;;7.22;2.67;;;6.70;99.90;;;;;;4930177;29;20060;-82
2022/04/10 06:16:39;;;;;;;6.63;2.50;;;6.80;99.90;;;;;;4914246;29;20047;-83
2022/04/10 06:19:05;;;;;;;7.05;1.95;;;6.80;99.90;;;;;;4931239;29;20013;-82
2022/04/10 06:21:31;;;;;;;3.83;1.85;;;6.90;99.90;;;;;;4914671;29;20038;-83
2022/04/10 06:23:57;;;;;;;6.93;2.53;;;7.00;99.90;;;;;;4932922;29;20016;-84
2022/04/10 06:26:35;;;;;;;5.32;1.75;;;7.10;99.90;;;;;;4929261;29;20023;-83
2022/04/10 06:29:03;;;;;;;7.22;1.95;;;7.10;99.90;;;;;;4915255;29;20088;-82
2022/04/10 06:31:45;;;;;;;5.18;2.17;;;7.00;99.90;;;;;;4914657;29;20048;-82
2022/04/10 06:34:13;;;;;;;6.82;2.00;;;6.90;99.90;;;;;;4917971;29;20500;-84
2022/04/10 06:36:41;;;;;;;3.17;1.80;;;6.90;99.90;;;;;;4925343;29;20063;-85
2022/04/10 06:39:09;;;;;;;4.15;1.73;;;7.00;99.90;;;;;;4917131;29;20055;-84
2022/04/10 06:41:36;;;;;;;4.53;2.05;;;7.10;99.90;;;;;;4890972;29;20037;-85
2022/04/10 06:44:07;;;;;;;7.63;2.38;;;7.20;99.90;;;;;;4871916;29;20409;-83
2022/04/10 06:46:45;;;;;;;6.25;1.83;;;7.30;99.90;;;;;;4902793;29;20029;-85
2022/04/10 06:49:19;;;;;;;4.85;1.80;;;7.30;99.90;;;;;;4896834;29;20029;-83
2022/04/10 06:51:46;;;;;;;3.65;1.40;;;7.40;99.90;;;;;;4916429;29;20100;-85
2022/04/10 06:54:17;;;;;;;3.63;1.63;;;7.50;99.90;;;;;;4899673;29;20024;-84
2022/04/10 06:56:44;;;;;;;6.70;1.90;;;7.40;99.90;;;;;;4906362;29;20088;-85
2022/04/10 06:59:10;;;;;;;4.97;1.95;;;7.50;99.90;;;;;;4906279;29;20053;-86
2022/04/10 07:01:37;;;;;;;6.55;1.70;;;7.50;99.90;;;;;;4899979;29;20032;-84
2022/04/10 07:04:04;;;;;;;4.40;1.60;;;7.50;99.90;;;;;;4888686;29;20035;-83
2022/04/10 07:06:32;;;;;;;7.20;1.80;;;7.60;99.60;;;;;;4887942;29;20025;-85
2022/04/10 07:08:58;;;;;;;4.30;1.35;;;7.70;99.60;;;;;;4891363;29;20031;-83
2022/04/10 07:11:31;;;;;;;4.97;1.80;;;7.70;99.40;;;;;;4891917;29;20033;-84
2022/04/10 07:13:57;;;;;;;5.72;1.55;;;7.70;99.40;;;;;;4889017;29;20041;-83
2022/04/10 07:16:23;;;;;;;7.13;1.65;;;7.70;99.00;;;;;;4875689;29;20087;-83
2022/04/10 07:18:50;;;;;;;3.90;1.42;;;7.80;98.80;;;;;;4897601;29;20044;-82
2022/04/10 07:23:41;;;;;;;6.30;1.65;;;7.70;98.90;;;;;;4908575;29;20057;-86
2022/04/10 07:24:09;;;;;;;3.95;1.60;;;7.70;98.60;;;;;;4907202;29;20036;-85
2022/04/10 07:26:40;;;;;;;4.43;1.20;;;7.80;98.60;;;;;;4909787;29;20024;-85
2022/04/10 07:29:12;;;;;;;3.67;1.45;;;7.80;98.30;;;;;;4908103;29;20041;-85
2022/04/10 07:31:40;;;;;;;7.35;1.60;;;7.90;98.00;;;;;;4916777;29;20056;-86
2022/04/10 07:34:06;;;;;;;4.65;1.58;;;8.10;97.90;;;;;;4883345;29;20048;-87
2022/04/10 07:36:53;;;;;;;3.03;1.35;;;8.10;97.50;;;;;;4894330;29;20048;-86
2022/04/10 07:39:21;;;;;;;3.15;1.30;;;8.10;96.60;;;;;;4892123;29;20029;-86
2022/04/10 07:41:56;;;;;;;6.20;1.40;;;8.20;96.60;;;;;;4898443;29;20024;-86
2022/04/10 07:44:28;;;;;;;4.85;1.42;;;8.30;96.60;;;;;;4910641;29;20032;-88
2022/04/10 07:49:38;;;;;;;4.50;1.30;;;8.30;96.30;;;;;;4932208;29;20040;-86
2022/04/10 07:52:10;;;;;;;3.45;1.20;;;8.30;96.10;;;;;;4939694;29;20127;-86
2022/04/10 07:54:54;;;;;;;4.85;1.15;;;8.30;95.70;;;;;;4922908;29;20100;-83
2022/04/10 07:57:20;;;;;;;4.68;1.33;;;8.30;96.20;;;;;;4942682;29;20038;-83
2022/04/10 07:59:48;;;;;;;3.60;1.38;;;8.20;95.90;;;;;;4942980;29;20068;-85
2022/04/10 08:02:21;;;;;;;5.30;1.20;;;8.30;95.70;;;;;;4935063;29;20036;-83
2022/04/10 08:04:48;;;;;;;3.83;1.67;;;8.30;95.80;;;;;;4908303;29;20061;-83
2022/04/10 08:07:32;;;;;;;3.03;0.82;;;8.30;95.60;;;;;;4924717;29;20043;-83
2022/04/10 08:09:58;;;;;;;2.97;1.15;;;8.20;95.90;;;;;;4924147;29;20045;-86
2022/04/10 08:12:25;;;;;;;4.65;1.40;;;8.40;95.80;;;;;;4923467;29;20016;-84
2022/04/10 08:14:51;;;;;;;6.18;1.40;;;8.50;95.70;;;;;;4921587;29;20036;-81
2022/04/10 08:17:17;;;;;;;4.43;1.30;;;8.70;95.40;;;;;;4920634;29;20047;-85
2022/04/10 08:19:43;;;;;;;3.15;0.98;;;8.80;95.20;;;;;;4918663;29;20040;-85
2022/04/10 08:22:08;;;;;;;3.17;1.33;;;8.90;95.10;;;;;;4921398;29;20055;-85
2022/04/10 08:24:34;;;;;;;3.38;1.40;;;9.00;94.50;;;;;;4923397;29;20036;-85
2022/04/10 08:27:00;;;;;;;2.38;1.05;;;9.10;94.10;;;;;;4925014;29;20033;-84
2022/04/10 08:29:26;;;;;;;2.83;1.13;;;9.20;93.70;;;;;;4925513;29;20622;-83
2022/04/10 08:31:52;;;;;;;5.55;1.10;;;9.20;93.50;;;;;;4924197;29;20047;-84
2022/04/10 08:34:18;;;;;;;7.68;1.27;;;9.20;93.50;;;;;;4923795;29;20025;-82
2022/04/10 08:36:44;;;;;;;7.15;1.50;;;9.20;93.50;;;;;;4924167;29;20021;-85
2022/04/10 08:39:10;;;;;;;4.43;1.35;;;9.40;92.80;;;;;;4923852;29;20096;-82
2022/04/10 08:41:38;;;;;;;2.92;1.40;;;9.60;92.30;;;;;;4924036;29;20032;-83
2022/04/10 08:44:05;;;;;;;5.47;1.40;;;9.70;91.90;;;;;;4924418;29;20104;-83
2022/04/10 08:46:33;;;;;;;5.20;1.58;;;9.70;92.00;;;;;;4923376;29;20021;-83
2022/04/10 08:49:00;;;;;;;4.28;1.40;;;9.80;91.80;;;;;;4923820;29;20037;-83
2022/04/10 08:51:27;;;;;;;2.00;0.95;;;9.90;91.80;;;;;;4924615;29;20017;-84
2022/04/10 08:53:56;;;;;;;3.15;1.38;;;10.00;91.00;;;;;;4923278;29;20016;-84
2022/04/10 08:56:23;;;;;;;3.28;1.65;;;9.80;91.00;;;;;;4923287;29;20024;-83
2022/04/10 08:58:52;;;;;;;4.32;1.58;;;10.10;91.20;;;;;;4922938;29;20043;-79
2022/04/10 09:01:19;;;;;;;5.82;1.42;;;10.10;90.60;;;;;;4921026;29;20040;-81
2022/04/10 09:03:46;;;;;;;4.97;1.50;;;10.20;90.60;;;;;;4919021;29;20047;-82
2022/04/10 09:06:12;;;;;;;6.88;1.42;;;10.20;90.60;;;;;;4920088;29;20029;-83
2022/04/10 09:08:39;;;;;;;4.95;1.67;;;10.10;90.10;;;;;;4923076;29;20028;-83
2022/04/10 09:11:06;;;;;;;5.72;1.95;;;10.10;89.70;;;;;;4923896;29;20027;-82
2022/04/10 09:13:35;;;;;;;5.82;1.70;;;10.10;89.90;;;;;;4924078;29;20140;-81
2022/04/10 09:16:08;;;;;;;3.38;1.58;;;10.30;89.50;;;;;;4924070;29;20569;-84
2022/04/10 09:18:58;;;;;;;3.72;1.50;;;10.40;89.70;;;;;;4923292;29;20108;-83
2022/04/10 09:21:25;;;;;;;7.70;1.55;;;10.20;88.80;;;;;;4916908;29;20112;-85
2022/04/10 09:24:00;;;;;;;3.92;1.67;;;10.20;89.20;;;;;;4914582;29;20034;-84
2022/04/10 09:26:27;;;;;;;5.30;1.80;;;10.10;89.50;;;;;;4916215;29;20029;-90
2022/04/10 09:28:54;;;;;;;4.53;1.73;;;10.30;89.90;;;;;;4917746;29;20024;-84
2022/04/10 09:31:33;;;;;;;5.50;1.73;;;11.30;88.20;;;;;;4918860;29;20032;-84
2022/04/10 09:34:03;;;;;;;5.93;1.80;;;12.70;85.30;;;;;;4918549;29;20028;-85
2022/04/10 09:36:35;;;;;;;5.70;2.10;;;14.00;82.10;;;;;;4919020;29;20043;-85
2022/04/10 09:39:04;;;;;;;5.07;1.92;;;14.50;77.70;;;;;;4919410;29;20036;-83
2022/04/10 09:41:29;;;;;;;3.28;1.67;;;14.30;76.00;;;;;;4917800;29;20029;-84
2022/04/10 09:44:00;;;;;;;4.35;1.67;;;13.70;76.40;;;;;;4917642;29;20052;-85
2022/04/10 09:46:26;;;;;;;5.20;1.75;;;13.10;77.10;;;;;;4922149;29;20032;-87
2022/04/10 09:48:52;;;;;;;4.82;2.20;;;12.40;76.50;;;;;;4940620;29;20055;-86
2022/04/10 09:51:18;;;;;;;5.80;2.00;;;11.70;77.50;;;;;;4940145;29;20096;-88
2022/04/10 09:54:02;;;;;;;6.40;1.65;;;11.10;78.50;;;;;;4937508;29;20031;-85
2022/04/10 09:56:29;;;;;;;5.93;2.08;;;10.70;80.30;;;;;;4937096;29;20038;-87
2022/04/10 09:59:01;;;;;;;5.53;2.00;;;10.60;80.80;;;;;;4935431;29;20016;-87
2022/04/10 10:01:28;;;;;;;2.72;1.33;;;10.70;80.40;;;;;;4924163;29;20024;-85
2022/04/10 10:03:57;;;;;;;12.95;2.45;;;10.80;79.80;;;;;;4914068;29;20073;-86
2022/04/10 10:06:25;;;;;;;5.30;2.03;;;10.90;79.50;;;;;;4912793;29;20071;-88
2022/04/10 10:08:51;;;;;;;11.10;2.17;;;11.20;78.60;;;;;;4913880;29;20028;-87
2022/04/10 10:11:18;;;;;;;4.82;1.88;;;11.70;77.70;;;;;;4919329;29;20028;-87
2022/04/10 10:13:44;;;;;;;5.05;2.25;;;12.60;74.60;;;;;;4911254;29;20061;-88
2022/04/10 10:16:10;;;;;;;2.03;1.50;;;12.90;73.90;;;;;;4910160;29;20059;-85
2022/04/10 10:18:37;;;;;;;6.53;2.33;;;12.50;73.30;;;;;;4912376;29;20029;-83
2022/04/10 10:21:03;;;;;;;4.93;1.90;;;13.00;74.20;;;;;;4915761;29;20032;-86
2022/04/10 10:23:29;;;;;;;4.10;1.58;;;13.70;74.10;;;;;;4915550;29;20184;-83
2022/04/10 10:26:01;;;;;;;3.95;1.67;;;15.70;72.40;;;;;;4901441;29;20033;-86
2022/04/10 10:29:01;;;;;;;4.20;1.73;;;17.80;69.10;;;;;;4919462;29;20103;-85
2022/04/10 10:31:42;;;;;;;4.32;2.00;;;19.20;64.80;;;;;;4920646;29;20037;-85
2022/04/10 10:34:09;;;;;;;4.47;1.88;;;19.60;60.20;;;;;;4920602;29;20040;-86
2022/04/10 10:36:36;;;;;;;3.10;1.60;;;18.40;59.80;;;;;;4919535;29;20031;-83
2022/04/10 10:39:04;;;;;;;6.13;2.42;;;17.00;60.10;;;;;;4917030;29;20085;-79
2022/04/10 10:41:38;;;;;;;6.88;2.25;;;15.60;62.10;;;;;;4915633;29;20039;-82
2022/04/10 10:44:36;;;;;;;3.70;2.00;;;15.50;62.70;;;;;;4916272;29;20043;-82
2022/04/10 10:47:03;;;;;;;4.32;2.25;;;14.50;64.70;;;;;;4906267;29;20061;-83
2022/04/10 10:49:44;;;;;;;3.38;1.88;;;13.50;67.30;;;;;;4916613;29;20055;-83
2022/04/10 10:52:11;;;;;;;4.10;2.30;;;12.90;69.00;;;;;;4920197;29;20056;-82
2022/04/10 10:54:50;;;;;;;6.35;2.40;;;12.30;72.70;;;;;;4917143;29;20032;-82
2022/04/10 10:57:25;;;;;;;7.32;3.00;;;11.80;71.70;;;;;;4909706;29;20128;-82
2022/04/10 10:59:52;;;;;;;6.47;2.67;;;11.40;73.40;;;;;;4917013;29;20040;-85
2022/04/10 11:02:19;;;;;;;9.55;2.47;;;11.00;74.40;;;;;;4920307;29;20036;-84
2022/04/10 11:04:52;;;;;;;4.20;2.10;;;10.80;76.20;;;;;;4919559;29;20052;-85
2022/04/10 11:07:18;;;;;;;6.25;2.70;;;10.70;77.90;;;;;;4917210;29;20120;-85
2022/04/10 11:10:00;;;;;;;5.55;2.10;;;10.90;77.90;;;;;;4914093;29;20028;-85
2022/04/10 11:12:32;;;;;;;7.55;2.40;;;11.00;78.50;;;;;;4913174;29;20056;-85
2022/04/10 11:15:02;;;;;;;5.72;1.88;;;11.30;78.40;;;;;;4911769;29;20036;-85
2022/04/10 11:17:30;;;;;;;6.82;2.28;;;11.80;78.30;;;;;;4911285;29;20079;-86
2022/04/10 11:20:05;;;;;;;5.72;2.50;;;13.50;76.90;;;;;;4912384;29;20025;-85
2022/04/10 11:22:32;;;;;;;;;;;15.80;73.80;;;;;;4912032;29;20117;-87
2022/04/10 11:24:59;;;;;;;4.65;1.98;;;17.60;69.30;;;;;;4943690;23;19934;-87
2022/04/10 11:27:45;;;;;;;4.97;2.30;;;18.70;67.50;;;;;;4922628;29;20044;-87
2022/04/10 11:30:13;;;;;;;2.88;1.83;;;19.00;66.50;;;;;;4922569;29;20028;-88
2022/04/10 11:32:53;;;;;;;4.30;1.83;;;19.00;65.30;;;;;;4922170;29;20036;-87
2022/04/10 11:35:22;;;;;;;4.63;1.83;;;18.80;65.40;;;;;;4921949;29;20032;-86
2022/04/10 11:37:51;;;;;;;8.15;2.35;;;17.50;67.80;;;;;;4922520;29;20068;-87
2022/04/10 11:40:23;;;;;;;7.30;2.53;;;16.30;70.90;;;;;;4915940;29;20040;-87
2022/04/10 11:42:49;;;;;;;5.70;2.30;;;16.20;72.40;;;;;;4914309;29;20065;-88
2022/04/10 11:45:15;;;;;;;3.30;2.00;;;16.60;69.90;;;;;;4912254;29;20410;-89
2022/04/10 11:47:42;;;;;;;4.90;2.30;;;16.10;71.20;;;;;;4914349;29;20023;-89
2022/04/10 11:50:14;;;;;;;4.85;1.98;;;16.60;72.10;;;;;;4918174;29;20022;-87
2022/04/10 11:53:01;;;;;;;2.90;1.92;;;18.40;68.20;;;;;;4900848;29;20493;-90
2022/04/10 11:55:32;;;;;;;5.50;2.20;;;18.10;69.50;;;;;;4916392;29;20061;-89
2022/04/10 11:57:58;;;;;;;4.30;1.98;;;17.80;70.80;;;;;;4915458;29;20041;-89
2022/04/10 12:00:25;;;;;;;3.78;2.20;;;17.20;72.00;;;;;;4917391;29;20041;-88
2022/04/10 12:02:53;;;;;;;6.38;2.78;;;15.90;74.70;;;;;;4914872;29;20041;-89
2022/04/10 12:05:30;;;;;;;6.72;2.58;;;14.80;77.80;;;;;;4907961;29;20036;-88
2022/04/10 12:08:04;;;;;;;5.63;2.05;;;15.60;77.30;;;;;;4908191;29;20055;-86
2022/04/10 12:10:31;;;;;;;2.72;1.63;;;17.20;74.10;;;;;;4905827;29;20473;-88
2022/04/10 12:12:57;;;;;;;3.33;1.60;;;18.30;70.70;;;;;;4906026;29;20084;-86
2022/04/10 12:15:24;;;;;;;2.92;2.00;;;19.20;67.90;;;;;;4904194;29;20047;-87
2022/04/10 12:18:06;;;;;;;4.35;1.77;;;20.70;65.30;;;;;;4906345;29;20025;-87
2022/04/10 12:20:36;;;;;;;2.22;1.40;;;21.00;63.80;;;;;;4915437;29;20536;-88
2022/04/10 12:23:18;;;;;;;2.28;1.40;;;21.10;62.70;;;;;;4909502;29;20048;-87
2022/04/10 12:25:44;;;;;;;2.42;1.50;;;19.50;63.80;;;;;;4908585;29;20040;-87
2022/04/10 12:28:10;;;;;;;2.30;1.60;;;18.60;64.50;;;;;;4909342;29;20040;-87
2022/04/10 12:30:38;;;;;;;3.53;1.63;;;17.50;65.90;;;;;;4911879;29;20051;-87
2022/04/10 12:33:05;;;;;;;4.00;1.60;;;16.50;66.30;;;;;;4911547;29;20393;-87
2022/04/10 12:35:43;;;;;;;2.80;1.75;;;15.50;68.20;;;;;;4910451;29;20025;-85
2022/04/10 12:38:11;;;;;;;5.97;1.98;;;14.60;69.80;;;;;;4910475;29;20121;-87
2022/04/10 12:40:39;;;;;;;7.32;2.00;;;13.50;73.10;;;;;;4909073;29;20044;-87
2022/04/10 12:43:06;;;;;;;2.72;2.05;;;12.40;75.40;;;;;;4908576;29;20041;-87
2022/04/10 12:45:38;;;;;;;2.33;1.77;;;11.90;78.00;;;;;;4910823;29;20055;-88
2022/04/10 12:48:29;;;;;;;4.25;2.55;;;11.70;79.40;;;;;;4910052;29;20032;-85
2022/04/10 12:51:08;;;;;;;6.10;2.65;;;11.70;82.80;;;;;;4910550;29;20099;-88
2022/04/10 12:53:35;;;;;;;4.40;2.95;;;10.40;88.40;;;;;;4913854;29;20037;-85
2022/04/10 12:56:05;;;;;;;7.47;3.13;;;9.70;92.30;;;;;;4910691;29;20099;-88
2022/04/10 12:58:47;;;;;;;6.40;3.58;;;9.40;95.50;;;;;;4911254;29;20117;-86
2022/04/10 13:01:33;;;;;;;7.38;3.70;;;8.90;98.20;;;;;;4890938;29;20132;-86
2022/04/10 13:04:01;;;;;;;5.93;3.58;;;8.90;99.90;;;;;;4908835;29;20060;-89
2022/04/10 13:06:49;;;;;;;4.75;3.33;;;9.00;99.90;;;;;;4909289;29;20033;-87